sensor_id;sensor_type;location;lat;lon;timestamp;pressure;altitude;pressure_sealevel;temperature;humidity
59419;BME280;45224;50.904;6.038;2023-03-19T00:00:12;99352.66;;;11.78;78.79
59419;BME280;45224;50.904;6.038;2023-03-19T00:01:42;99348.38;;;11.77;78.85
59419;BME280;45224;50.904;6.038;2023-03-19T00:03:13;99357.78;;;11.84;78.51
59419;BME280;45224;50.904;6.038;2023-03-19T00:04:44;99359.47;;;11.87;78.36
59419;BME280;45224;50.904;6.038;2023-03-19T00:06:15;99357.75;;;11.86;78.14
59419;BME280;45224;50.904;6.038;2023-03-19T00:07:45;99363.81;;;11.83;78.40
59419;BME280;45224;50.904;6.038;2023-03-19T00:09:17;99365.59;;;11.78;78.75
59419;BME280;45224;50.904;6.038;2023-03-19T00:10:47;99362.22;;;11.73;79.51
59419;BME280;45224;50.904;6.038;2023-03-19T00:12:18;99361.34;;;11.74;78.37
59419;BME280;45224;50.904;6.038;2023-03-19T00:13:48;99364.78;;;11.76;78.04
59419;BME280;45224;50.904;6.038;2023-03-19T00:15:19;99364.75;;;11.79;77.86
59419;BME280;45224;50.904;6.038;2023-03-19T00:16:49;99365.56;;;11.81;77.82
59419;BME280;45224;50.904;6.038;2023-03-19T00:18:20;99353.50;;;11.80;77.62
59419;BME280;45224;50.904;6.038;2023-03-19T00:19:50;99356.06;;;11.82;77.59
59419;BME280;45224;50.904;6.038;2023-03-19T00:21:21;99350.03;;;11.81;77.47
59419;BME280;45224;50.904;6.038;2023-03-19T00:22:52;99341.44;;;11.79;77.26
59419;BME280;45224;50.904;6.038;2023-03-19T00:24:23;99356.94;;;11.82;77.17
59419;BME280;45224;50.904;6.038;2023-03-19T00:25:53;99350.00;;;11.84;76.95
59419;BME280;45224;50.904;6.038;2023-03-19T00:27:24;99359.56;;;11.81;77.61
59419;BME280;45224;50.904;6.038;2023-03-19T00:28:56;99361.25;;;11.80;77.57
59419;BME280;45224;50.904;6.038;2023-03-19T00:30:26;99357.03;;;11.73;78.57
59419;BME280;45224;50.904;6.038;2023-03-19T00:31:57;99357.06;;;11.72;78.21
59419;BME280;45224;50.904;6.038;2023-03-19T00:33:27;99357.88;;;11.74;78.02
59419;BME280;45224;50.904;6.038;2023-03-19T00:34:58;99353.59;;;11.74;77.62
59419;BME280;45224;50.904;6.038;2023-03-19T00:36:29;99345.91;;;11.66;78.47
59419;BME280;45224;50.904;6.038;2023-03-19T00:38:00;99345.09;;;11.63;78.69
59419;BME280;45224;50.904;6.038;2023-03-19T00:39:31;99351.97;;;11.64;78.10
59419;BME280;45224;50.904;6.038;2023-03-19T00:41:03;99351.94;;;11.65;77.97
59419;BME280;45224;50.904;6.038;2023-03-19T00:42:34;99353.66;;;11.68;77.89
59419;BME280;45224;50.904;6.038;2023-03-19T00:44:06;99358.00;;;11.66;78.16
59419;BME280;45224;50.904;6.038;2023-03-19T00:45:37;99361.50;;;11.60;78.84
59419;BME280;45224;50.904;6.038;2023-03-19T00:47:07;99365.78;;;11.66;78.13
59419;BME280;45224;50.904;6.038;2023-03-19T00:48:38;99358.91;;;11.62;78.97
59419;BME280;45224;50.904;6.038;2023-03-19T00:50:09;99365.81;;;11.63;78.68
59419;BME280;45224;50.904;6.038;2023-03-19T00:51:39;99366.69;;;11.60;79.65
59419;BME280;45224;50.904;6.038;2023-03-19T00:53:13;99353.78;;;11.56;78.64
59419;BME280;45224;50.904;6.038;2023-03-19T00:54:43;99355.44;;;11.63;78.34
59419;BME280;45224;50.904;6.038;2023-03-19T00:56:15;99363.25;;;11.60;78.88
59419;BME280;45224;50.904;6.038;2023-03-19T00:57:47;99363.28;;;11.57;78.99
59419;BME280;45224;50.904;6.038;2023-03-19T00:59:17;99371.88;;;11.57;78.47
59419;BME280;45224;50.904;6.038;2023-03-19T01:00:51;99367.53;;;11.61;79.22
59419;BME280;45224;50.904;6.038;2023-03-19T01:02:22;99375.28;;;11.62;79.59
59419;BME280;45224;50.904;6.038;2023-03-19T01:03:52;99368.41;;;11.60;79.39
59419;BME280;45224;50.904;6.038;2023-03-19T01:05:23;99360.72;;;11.54;79.41
59419;BME280;45224;50.904;6.038;2023-03-19T01:06:56;99370.16;;;11.58;79.12
59419;BME280;45224;50.904;6.038;2023-03-19T01:08:29;99369.28;;;11.59;79.28
59419;BME280;45224;50.904;6.038;2023-03-19T01:10:01;99367.63;;;11.55;79.77
59419;BME280;45224;50.904;6.038;2023-03-19T01:11:32;99364.97;;;11.58;79.70
59419;BME280;45224;50.904;6.038;2023-03-19T01:13:03;99367.56;;;11.58;79.90
59419;BME280;45224;50.904;6.038;2023-03-19T01:14:34;99368.47;;;11.55;79.92
59419;BME280;45224;50.904;6.038;2023-03-19T01:16:05;99367.66;;;11.51;80.18
59419;BME280;45224;50.904;6.038;2023-03-19T01:17:36;99368.50;;;11.52;80.24
59419;BME280;45224;50.904;6.038;2023-03-19T01:19:06;99368.56;;;11.46;81.49
59419;BME280;45224;50.904;6.038;2023-03-19T01:20:39;99363.38;;;11.44;81.48
59419;BME280;45224;50.904;6.038;2023-03-19T01:22:11;99369.38;;;11.49;80.98
59419;BME280;45224;50.904;6.038;2023-03-19T01:23:46;99367.72;;;11.45;81.88
59419;BME280;45224;50.904;6.038;2023-03-19T01:25:17;99370.25;;;11.51;80.86
59419;BME280;45224;50.904;6.038;2023-03-19T01:26:58;99377.13;;;11.51;81.19
59419;BME280;45224;50.904;6.038;2023-03-19T01:28:38;99365.06;;;11.50;81.09
59419;BME280;45224;50.904;6.038;2023-03-19T01:30:09;99370.22;;;11.53;81.16
59419;BME280;45224;50.904;6.038;2023-03-19T01:32:09;99366.75;;;11.52;81.56
59419;BME280;45224;50.904;6.038;2023-03-19T01:33:57;99367.69;;;11.48;81.25
59419;BME280;45224;50.904;6.038;2023-03-19T01:35:38;99364.28;;;11.43;82.13
59419;BME280;45224;50.904;6.038;2023-03-19T01:37:09;99371.94;;;11.51;80.87
59419;BME280;45224;50.904;6.038;2023-03-19T01:38:40;99362.44;;;11.55;80.71
59419;BME280;45224;50.904;6.038;2023-03-19T01:40:18;99371.09;;;11.50;81.22
59419;BME280;45224;50.904;6.038;2023-03-19T01:41:48;99368.47;;;11.54;80.48
59419;BME280;45224;50.904;6.038;2023-03-19T01:43:51;99361.56;;;11.52;80.68
59419;BME280;45224;50.904;6.038;2023-03-19T01:45:45;99361.53;;;11.56;80.23
59419;BME280;45224;50.904;6.038;2023-03-19T01:47:48;99359.94;;;11.45;81.18
59419;BME280;45224;50.904;6.038;2023-03-19T01:49:29;99364.19;;;11.49;80.14
59419;BME280;45224;50.904;6.038;2023-03-19T01:51:18;99361.59;;;11.49;80.14
59419;BME280;45224;50.904;6.038;2023-03-19T01:53:25;99364.16;;;11.52;80.06
59419;BME280;45224;50.904;6.038;2023-03-19T01:55:08;99362.50;;;11.48;80.18
59419;BME280;45224;50.904;6.038;2023-03-19T01:56:55;99359.00;;;11.49;80.01
59419;BME280;45224;50.904;6.038;2023-03-19T01:58:32;99358.19;;;11.47;80.33
59419;BME280;45224;50.904;6.038;2023-03-19T02:00:32;99360.72;;;11.54;79.68
59419;BME280;45224;50.904;6.038;2023-03-19T02:02:33;99359.00;;;11.49;80.50
59419;BME280;45224;50.904;6.038;2023-03-19T02:04:14;99360.78;;;11.47;80.26
59419;BME280;45224;50.904;6.038;2023-03-19T02:05:46;99356.41;;;11.51;79.82
59419;BME280;45224;50.904;6.038;2023-03-19T02:07:19;99350.38;;;11.50;79.56
59419;BME280;45224;50.904;6.038;2023-03-19T02:08:50;99361.72;;;11.42;80.71
59419;BME280;45224;50.904;6.038;2023-03-19T02:10:22;99352.91;;;11.58;79.58
59419;BME280;45224;50.904;6.038;2023-03-19T02:11:53;99348.63;;;11.52;79.88
59419;BME280;45224;50.904;6.038;2023-03-19T02:13:25;99353.84;;;11.49;80.30
59419;BME280;45224;50.904;6.038;2023-03-19T02:14:55;99355.56;;;11.50;80.05
59419;BME280;45224;50.904;6.038;2023-03-19T02:16:26;99348.69;;;11.46;80.51
59419;BME280;45224;50.904;6.038;2023-03-19T02:17:57;99347.06;;;11.39;80.65
59419;BME280;45224;50.904;6.038;2023-03-19T02:19:34;99351.34;;;11.42;80.82
59419;BME280;45224;50.904;6.038;2023-03-19T02:21:17;99351.34;;;11.43;80.60
59419;BME280;45224;50.904;6.038;2023-03-19T02:24:50;99336.72;;;11.36;81.29
59419;BME280;45224;50.904;6.038;2023-03-19T02:26:26;99330.78;;;11.28;81.86
59419;BME280;45224;50.904;6.038;2023-03-19T02:28:03;99344.63;;;11.24;82.21
59419;BME280;45224;50.904;6.038;2023-03-19T02:29:34;99336.78;;;11.30;81.66
59419;BME280;45224;50.904;6.038;2023-03-19T02:31:06;99346.28;;;11.29;81.55
59419;BME280;45224;50.904;6.038;2023-03-19T02:32:36;99343.78;;;11.22;82.34
59419;BME280;45224;50.904;6.038;2023-03-19T02:35:51;99348.16;;;11.13;82.79
59419;BME280;45224;50.904;6.038;2023-03-19T02:37:27;99355.88;;;11.20;82.01
59419;BME280;45224;50.904;6.038;2023-03-19T02:39:01;99355.97;;;11.10;82.56
59419;BME280;45224;50.904;6.038;2023-03-19T02:40:40;99349.94;;;11.08;82.84
59419;BME280;45224;50.904;6.038;2023-03-19T02:42:15;99344.72;;;11.16;82.12
59419;BME280;45224;50.904;6.038;2023-03-19T02:43:46;99341.34;;;11.06;82.71
59419;BME280;45224;50.904;6.038;2023-03-19T02:45:17;99347.38;;;11.05;82.82
59419;BME280;45224;50.904;6.038;2023-03-19T02:46:47;99350.84;;;11.01;83.54
59419;BME280;45224;50.904;6.038;2023-03-19T02:48:18;99363.81;;;11.00;83.48
59419;BME280;45224;50.904;6.038;2023-03-19T02:49:49;99360.31;;;11.05;83.45
59419;BME280;45224;50.904;6.038;2023-03-19T02:51:19;99362.91;;;11.05;83.20
59419;BME280;45224;50.904;6.038;2023-03-19T02:52:50;99358.63;;;11.01;83.84
59419;BME280;45224;50.904;6.038;2023-03-19T02:54:23;99364.69;;;11.00;83.80
59419;BME280;45224;50.904;6.038;2023-03-19T02:55:53;99363.84;;;10.96;84.08
59419;BME280;45224;50.904;6.038;2023-03-19T02:57:24;99375.06;;;10.97;84.08
59419;BME280;45224;50.904;6.038;2023-03-19T02:58:55;99357.78;;;10.99;83.39
59419;BME280;45224;50.904;6.038;2023-03-19T03:00:25;99373.22;;;11.08;83.40
59419;BME280;45224;50.904;6.038;2023-03-19T03:01:57;99375.03;;;11.00;84.02
59419;BME280;45224;50.904;6.038;2023-03-19T03:03:27;99367.25;;;11.03;83.80
59419;BME280;45224;50.904;6.038;2023-03-19T03:04:58;99366.34;;;11.04;83.67
59419;BME280;45224;50.904;6.038;2023-03-19T03:06:29;99373.22;;;11.08;83.42
59419;BME280;45224;50.904;6.038;2023-03-19T03:07:59;99371.56;;;11.00;84.01
59419;BME280;45224;50.904;6.038;2023-03-19T03:09:31;99374.09;;;11.06;84.03
59419;BME280;45224;50.904;6.038;2023-03-19T03:11:02;99365.53;;;11.01;84.11
59419;BME280;45224;50.904;6.038;2023-03-19T03:12:33;99362.94;;;11.02;83.95
59419;BME280;45224;50.904;6.038;2023-03-19T03:14:03;99368.16;;;10.93;84.38
59419;BME280;45224;50.904;6.038;2023-03-19T03:15:34;99368.97;;;11.00;84.15
59419;BME280;45224;50.904;6.038;2023-03-19T03:17:04;99360.38;;;10.98;83.84
59419;BME280;45224;50.904;6.038;2023-03-19T03:18:35;99370.75;;;10.94;84.43
59419;BME280;45224;50.904;6.038;2023-03-19T03:20:07;99372.53;;;10.89;85.01
59419;BME280;45224;50.904;6.038;2023-03-19T03:21:39;99371.63;;;10.95;84.59
59419;BME280;45224;50.904;6.038;2023-03-19T03:23:10;99371.59;;;10.98;84.79
59419;BME280;45224;50.904;6.038;2023-03-19T03:24:41;99375.16;;;10.82;85.84
59419;BME280;45224;50.904;6.038;2023-03-19T03:26:11;99369.91;;;10.94;85.85
59419;BME280;45224;50.904;6.038;2023-03-19T03:27:42;99369.09;;;10.89;86.06
59419;BME280;45224;50.904;6.038;2023-03-19T03:29:12;99363.91;;;10.87;87.04
59419;BME280;45224;50.904;6.038;2023-03-19T03:30:45;99373.38;;;10.90;87.02
59419;BME280;45224;50.904;6.038;2023-03-19T03:32:16;99374.28;;;10.87;87.37
59419;BME280;45224;50.904;6.038;2023-03-19T03:33:47;99383.72;;;10.90;87.28
59419;BME280;45224;50.904;6.038;2023-03-19T03:35:18;99379.44;;;10.89;87.34
59419;BME280;45224;50.904;6.038;2023-03-19T03:36:51;99376.88;;;10.86;87.31
59419;BME280;45224;50.904;6.038;2023-03-19T03:38:22;99371.66;;;10.89;86.72
59419;BME280;45224;50.904;6.038;2023-03-19T03:39:53;99384.63;;;10.84;87.09
59419;BME280;45224;50.904;6.038;2023-03-19T03:41:23;99378.59;;;10.85;87.49
59419;BME280;45224;50.904;6.038;2023-03-19T03:42:54;99370.91;;;10.76;87.13
59419;BME280;45224;50.904;6.038;2023-03-19T03:44:25;99388.06;;;10.85;87.70
59419;BME280;45224;50.904;6.038;2023-03-19T03:45:57;99389.78;;;10.86;87.60
59419;BME280;45224;50.904;6.038;2023-03-19T03:47:28;99385.63;;;10.69;88.89
59419;BME280;45224;50.904;6.038;2023-03-19T03:48:58;99381.25;;;10.74;89.47
59419;BME280;45224;50.904;6.038;2023-03-19T03:50:29;99383.88;;;10.71;89.90
59419;BME280;45224;50.904;6.038;2023-03-19T03:52:04;99383.88;;;10.67;90.32
59419;BME280;45224;50.904;6.038;2023-03-19T03:53:35;99389.00;;;10.74;89.56
59419;BME280;45224;50.904;6.038;2023-03-19T03:55:08;99383.03;;;10.69;90.47
59419;BME280;45224;50.904;6.038;2023-03-19T03:56:39;99389.09;;;10.62;91.64
59419;BME280;45224;50.904;6.038;2023-03-19T03:58:09;99389.97;;;10.64;92.31
59419;BME280;45224;50.904;6.038;2023-03-19T03:59:40;99390.78;;;10.69;93.09
59419;BME280;45224;50.904;6.038;2023-03-19T04:01:14;99391.66;;;10.64;93.74
59419;BME280;45224;50.904;6.038;2023-03-19T04:02:46;99399.41;;;10.68;94.46
59419;BME280;45224;50.904;6.038;2023-03-19T04:04:19;99401.16;;;10.63;94.58
59419;BME280;45224;50.904;6.038;2023-03-19T04:05:50;99390.84;;;10.60;95.05
59419;BME280;45224;50.904;6.038;2023-03-19T04:07:24;99404.59;;;10.65;95.00
59419;BME280;45224;50.904;6.038;2023-03-19T04:08:59;99402.06;;;10.56;95.52
59419;BME280;45224;50.904;6.038;2023-03-19T04:10:31;99397.72;;;10.61;95.42
59419;BME280;45224;50.904;6.038;2023-03-19T04:12:02;99399.47;;;10.56;95.68
59419;BME280;45224;50.904;6.038;2023-03-19T04:13:33;99403.78;;;10.58;95.95
59419;BME280;45224;50.904;6.038;2023-03-19T04:15:08;99402.91;;;10.58;95.07
59419;BME280;45224;50.904;6.038;2023-03-19T04:16:41;99401.16;;;10.63;94.91
59419;BME280;45224;50.904;6.038;2023-03-19T04:18:13;99401.19;;;10.58;95.37
59419;BME280;45224;50.904;6.038;2023-03-19T04:19:44;99408.09;;;10.56;95.89
59419;BME280;45224;50.904;6.038;2023-03-19T04:21:15;99407.19;;;10.59;95.49
59419;BME280;45224;50.904;6.038;2023-03-19T04:22:45;99418.47;;;10.52;96.44
59419;BME280;45224;50.904;6.038;2023-03-19T04:24:16;99411.59;;;10.45;97.54
59419;BME280;45224;50.904;6.038;2023-03-19T04:25:47;99416.75;;;10.48;97.27
59419;BME280;45224;50.904;6.038;2023-03-19T04:27:18;99410.75;;;10.44;98.49
59419;BME280;45224;50.904;6.038;2023-03-19T04:28:49;99414.16;;;10.51;97.42
59419;BME280;45224;50.904;6.038;2023-03-19T04:30:19;99417.63;;;10.47;98.25
59419;BME280;45224;50.904;6.038;2023-03-19T04:31:50;99417.69;;;10.34;98.88
59419;BME280;45224;50.904;6.038;2023-03-19T04:33:21;99413.34;;;10.43;98.99
59419;BME280;45224;50.904;6.038;2023-03-19T04:34:52;99418.50;;;10.43;98.94
59419;BME280;45224;50.904;6.038;2023-03-19T04:36:23;99415.91;;;10.43;98.53
59419;BME280;45224;50.904;6.038;2023-03-19T04:37:53;99409.91;;;10.44;99.19
59419;BME280;45224;50.904;6.038;2023-03-19T04:39:25;99415.94;;;10.38;100.00
59419;BME280;45224;50.904;6.038;2023-03-19T04:40:55;99411.66;;;10.38;99.98
59419;BME280;45224;50.904;6.038;2023-03-19T04:42:29;99418.53;;;10.36;100.00
59419;BME280;45224;50.904;6.038;2023-03-19T04:44:13;99412.50;;;10.40;99.04
59419;BME280;45224;50.904;6.038;2023-03-19T04:45:45;99411.56;;;10.48;98.41
59419;BME280;45224;50.904;6.038;2023-03-19T04:47:16;99414.16;;;10.48;98.54
59419;BME280;45224;50.904;6.038;2023-03-19T04:48:54;99404.75;;;10.40;98.41
59419;BME280;45224;50.904;6.038;2023-03-19T04:50:25;99415.91;;;10.43;99.88
59419;BME280;45224;50.904;6.038;2023-03-19T04:51:57;99422.84;;;10.39;99.87
59419;BME280;45224;50.904;6.038;2023-03-19T04:53:29;99423.66;;;10.46;99.37
59419;BME280;45224;50.904;6.038;2023-03-19T04:54:59;99415.06;;;10.44;99.31
59419;BME280;45224;50.904;6.038;2023-03-19T04:56:33;99421.06;;;10.47;98.86
59419;BME280;45224;50.904;6.038;2023-03-19T04:58:04;99425.38;;;10.50;98.70
59419;BME280;45224;50.904;6.038;2023-03-19T04:59:37;99427.06;;;10.51;98.28
59419;BME280;45224;50.904;6.038;2023-03-19T05:01:08;99425.34;;;10.53;98.30
59419;BME280;45224;50.904;6.038;2023-03-19T05:03:02;99424.47;;;10.51;98.88
59419;BME280;45224;50.904;6.038;2023-03-19T05:04:34;99430.53;;;10.53;99.63
59419;BME280;45224;50.904;6.038;2023-03-19T05:06:10;99437.41;;;10.54;99.10
59419;BME280;45224;50.904;6.038;2023-03-19T05:07:41;99433.97;;;10.49;100.00
59419;BME280;45224;50.904;6.038;2023-03-19T05:09:13;99430.53;;;10.53;99.36
59419;BME280;45224;50.904;6.038;2023-03-19T05:10:43;99424.47;;;10.54;99.15
59419;BME280;45224;50.904;6.038;2023-03-19T05:12:14;99431.38;;;10.52;100.00
59419;BME280;45224;50.904;6.038;2023-03-19T05:13:49;99435.72;;;10.50;100.00
59419;BME280;45224;50.904;6.038;2023-03-19T05:15:20;99431.38;;;10.56;99.59
59419;BME280;45224;50.904;6.038;2023-03-19T05:17:10;99433.97;;;10.55;99.78
59419;BME280;45224;50.904;6.038;2023-03-19T05:18:52;99434.81;;;10.54;100.00
59419;BME280;45224;50.904;6.038;2023-03-19T05:20:23;99433.13;;;10.51;100.00
59419;BME280;45224;50.904;6.038;2023-03-19T05:22:00;99439.13;;;10.58;99.58
59419;BME280;45224;50.904;6.038;2023-03-19T05:23:32;99439.97;;;10.55;100.00
59419;BME280;45224;50.904;6.038;2023-03-19T05:25:09;99441.72;;;10.53;100.00
59419;BME280;45224;50.904;6.038;2023-03-19T05:26:42;99440.88;;;10.53;100.00
59419;BME280;45224;50.904;6.038;2023-03-19T05:28:28;99444.28;;;10.58;99.74
59419;BME280;45224;50.904;6.038;2023-03-19T05:29:59;99435.69;;;10.53;99.88
59419;BME280;45224;50.904;6.038;2023-03-19T05:31:53;99449.47;;;10.55;99.80
59419;BME280;45224;50.904;6.038;2023-03-19T05:33:24;99449.47;;;10.55;100.00
59419;BME280;45224;50.904;6.038;2023-03-19T05:34:57;99446.91;;;10.52;100.00
59419;BME280;45224;50.904;6.038;2023-03-19T05:36:27;99448.56;;;10.59;99.58
59419;BME280;45224;50.904;6.038;2023-03-19T05:38:09;99452.91;;;10.54;100.00
59419;BME280;45224;50.904;6.038;2023-03-19T05:39:41;99452.91;;;10.55;99.97
59419;BME280;45224;50.904;6.038;2023-03-19T05:41:13;99454.63;;;10.55;100.00
59419;BME280;45224;50.904;6.038;2023-03-19T05:42:57;99456.38;;;10.51;100.00
59419;BME280;45224;50.904;6.038;2023-03-19T05:44:30;99456.31;;;10.59;99.39
59419;BME280;45224;50.904;6.038;2023-03-19T05:46:13;99448.66;;;10.48;100.00
59419;BME280;45224;50.904;6.038;2023-03-19T05:47:46;99451.22;;;10.53;100.00
59419;BME280;45224;50.904;6.038;2023-03-19T05:49:18;99461.50;;;10.54;100.00
59419;BME280;45224;50.904;6.038;2023-03-19T05:50:48;99453.75;;;10.54;100.00
59419;BME280;45224;50.904;6.038;2023-03-19T05:52:24;99458.91;;;10.57;100.00
59419;BME280;45224;50.904;6.038;2023-03-19T05:53:57;99464.94;;;10.61;100.00
59419;BME280;45224;50.904;6.038;2023-03-19T05:55:30;99460.63;;;10.60;100.00
59419;BME280;45224;50.904;6.038;2023-03-19T05:57:07;99465.78;;;10.62;100.00
59419;BME280;45224;50.904;6.038;2023-03-19T05:58:46;99466.66;;;10.60;100.00
59419;BME280;45224;50.904;6.038;2023-03-19T06:00:21;99467.56;;;10.56;100.00
59419;BME280;45224;50.904;6.038;2023-03-19T06:01:52;99467.56;;;10.50;100.00
59419;BME280;45224;50.904;6.038;2023-03-19T06:03:23;99470.13;;;10.58;100.00
59419;BME280;45224;50.904;6.038;2023-03-19T06:04:55;99467.53;;;10.59;100.00
59419;BME280;45224;50.904;6.038;2023-03-19T06:06:30;99467.53;;;10.58;100.00
59419;BME280;45224;50.904;6.038;2023-03-19T06:08:01;99464.06;;;10.60;100.00
59419;BME280;45224;50.904;6.038;2023-03-19T06:09:40;99473.56;;;10.60;100.00
59419;BME280;45224;50.904;6.038;2023-03-19T06:11:11;99473.56;;;10.60;100.00
59419;BME280;45224;50.904;6.038;2023-03-19T06:12:42;99479.56;;;10.62;100.00
59419;BME280;45224;50.904;6.038;2023-03-19T06:14:38;99479.59;;;10.54;100.00
59419;BME280;45224;50.904;6.038;2023-03-19T06:16:29;99483.09;;;10.49;100.00
59419;BME280;45224;50.904;6.038;2023-03-19T06:18:00;99485.66;;;10.55;100.00
59419;BME280;45224;50.904;6.038;2023-03-19T06:19:31;99490.00;;;10.51;100.00
59419;BME280;45224;50.904;6.038;2023-03-19T06:21:01;99483.91;;;10.54;100.00
59419;BME280;45224;50.904;6.038;2023-03-19T06:22:32;99491.69;;;10.49;100.00
59419;BME280;45224;50.904;6.038;2023-03-19T06:24:03;99484.84;;;10.39;100.00
59419;BME280;45224;50.904;6.038;2023-03-19T06:25:38;99492.56;;;10.53;100.00
59419;BME280;45224;50.904;6.038;2023-03-19T06:27:08;99497.75;;;10.51;100.00
59419;BME280;45224;50.904;6.038;2023-03-19T06:28:39;99487.41;;;10.47;100.00
59419;BME280;45224;50.904;6.038;2023-03-19T06:30:10;99492.59;;;10.47;100.00
59419;BME280;45224;50.904;6.038;2023-03-19T06:31:41;99494.28;;;10.48;100.00
59419;BME280;45224;50.904;6.038;2023-03-19T06:33:22;99485.69;;;10.46;100.00
59419;BME280;45224;50.904;6.038;2023-03-19T06:34:56;99496.03;;;10.46;100.00
59419;BME280;45224;50.904;6.038;2023-03-19T06:36:28;99489.13;;;10.45;100.00
59419;BME280;45224;50.904;6.038;2023-03-19T06:37:59;99494.28;;;10.48;100.00
59419;BME280;45224;50.904;6.038;2023-03-19T06:39:29;99493.44;;;10.47;100.00
59419;BME280;45224;50.904;6.038;2023-03-19T06:41:01;99490.84;;;10.52;100.00
59419;BME280;45224;50.904;6.038;2023-03-19T06:42:31;99495.09;;;10.54;100.00
59419;BME280;45224;50.904;6.038;2023-03-19T06:44:03;99493.41;;;10.56;100.00
59419;BME280;45224;50.904;6.038;2023-03-19T06:45:33;99497.72;;;10.53;100.00
59419;BME280;45224;50.904;6.038;2023-03-19T06:47:04;99493.44;;;10.50;100.00
59419;BME280;45224;50.904;6.038;2023-03-19T06:48:35;99497.75;;;10.47;100.00
59419;BME280;45224;50.904;6.038;2023-03-19T06:50:06;99496.88;;;10.48;100.00
59419;BME280;45224;50.904;6.038;2023-03-19T06:51:37;99504.63;;;10.51;100.00
59419;BME280;45224;50.904;6.038;2023-03-19T06:53:07;99512.38;;;10.52;100.00
59419;BME280;45224;50.904;6.038;2023-03-19T06:54:38;99508.91;;;10.59;100.00
59419;BME280;45224;50.904;6.038;2023-03-19T06:56:08;99500.31;;;10.53;100.00
59419;BME280;45224;50.904;6.038;2023-03-19T06:57:39;99508.03;;;10.57;100.00
59419;BME280;45224;50.904;6.038;2023-03-19T06:59:09;99514.06;;;10.61;100.00
59419;BME280;45224;50.904;6.038;2023-03-19T07:00:42;99515.75;;;10.62;100.00
59419;BME280;45224;50.904;6.038;2023-03-19T07:02:13;99518.34;;;10.62;100.00
59419;BME280;45224;50.904;6.038;2023-03-19T07:03:43;99520.94;;;10.60;100.00
59419;BME280;45224;50.904;6.038;2023-03-19T07:05:14;99518.34;;;10.65;100.00
59419;BME280;45224;50.904;6.038;2023-03-19T07:06:44;99519.22;;;10.64;100.00
59419;BME280;45224;50.904;6.038;2023-03-19T07:08:15;99521.84;;;10.58;100.00
59419;BME280;45224;50.904;6.038;2023-03-19T07:09:46;99517.50;;;10.62;100.00
59419;BME280;45224;50.904;6.038;2023-03-19T07:11:16;99510.59;;;10.59;100.00
59419;BME280;45224;50.904;6.038;2023-03-19T07:12:47;99521.78;;;10.67;100.00
59419;BME280;45224;50.904;6.038;2023-03-19T07:14:17;99525.22;;;10.69;100.00
59419;BME280;45224;50.904;6.038;2023-03-19T07:15:48;99514.91;;;10.66;100.00
59419;BME280;45224;50.904;6.038;2023-03-19T07:17:19;99524.34;;;10.72;100.00
59419;BME280;45224;50.904;6.038;2023-03-19T07:18:49;99523.47;;;10.74;100.00
59419;BME280;45224;50.904;6.038;2023-03-19T07:20:20;99528.66;;;10.74;100.00
59419;BME280;45224;50.904;6.038;2023-03-19T07:21:50;99532.09;;;10.72;100.00
59419;BME280;45224;50.904;6.038;2023-03-19T07:23:21;99529.50;;;10.73;100.00
59419;BME280;45224;50.904;6.038;2023-03-19T07:24:52;99525.22;;;10.72;100.00
59419;BME280;45224;50.904;6.038;2023-03-19T07:26:22;99523.50;;;10.65;100.00
59419;BME280;45224;50.904;6.038;2023-03-19T07:27:52;99528.66;;;10.71;100.00
59419;BME280;45224;50.904;6.038;2023-03-19T07:29:23;99538.06;;;10.82;100.00
59419;BME280;45224;50.904;6.038;2023-03-19T07:30:53;99527.72;;;10.83;100.00
59419;BME280;45224;50.904;6.038;2023-03-19T07:32:25;99526.88;;;10.86;100.00
59419;BME280;45224;50.904;6.038;2023-03-19T07:33:56;99522.53;;;10.89;100.00
59419;BME280;45224;50.904;6.038;2023-03-19T07:35:26;99528.50;;;10.99;100.00
59419;BME280;45224;50.904;6.038;2023-03-19T07:36:57;99533.66;;;11.02;100.00
59419;BME280;45224;50.904;6.038;2023-03-19T07:38:27;99528.47;;;11.08;100.00
59419;BME280;45224;50.904;6.038;2023-03-19T07:39:58;99531.00;;;11.18;100.00
59419;BME280;45224;50.904;6.038;2023-03-19T07:41:28;99535.25;;;11.25;100.00
59419;BME280;45224;50.904;6.038;2023-03-19T07:42:59;99530.88;;;11.31;100.00
59419;BME280;45224;50.904;6.038;2023-03-19T07:44:29;99532.59;;;11.34;100.00
59419;BME280;45224;50.904;6.038;2023-03-19T07:46:00;99527.41;;;11.36;100.00
59419;BME280;45224;50.904;6.038;2023-03-19T07:47:31;99528.25;;;11.38;100.00
59419;BME280;45224;50.904;6.038;2023-03-19T07:49:01;99530.78;;;11.45;100.00
59419;BME280;45224;50.904;6.038;2023-03-19T07:50:32;99530.78;;;11.45;100.00
59419;BME280;45224;50.904;6.038;2023-03-19T07:52:03;99529.00;;;11.52;100.00
59419;BME280;45224;50.904;6.038;2023-03-19T07:53:33;99530.69;;;11.56;100.00
59419;BME280;45224;50.904;6.038;2023-03-19T07:55:04;99534.09;;;11.63;100.00
59419;BME280;45224;50.904;6.038;2023-03-19T07:56:34;99529.72;;;11.71;100.00
59419;BME280;45224;50.904;6.038;2023-03-19T07:58:05;99538.31;;;11.76;100.00
59419;BME280;45224;50.904;6.038;2023-03-19T07:59:36;99534.84;;;11.77;100.00
59419;BME280;45224;50.904;6.038;2023-03-19T08:01:06;99543.41;;;11.84;100.00
59419;BME280;45224;50.904;6.038;2023-03-19T08:02:37;99526.94;;;11.94;100.00
59419;BME280;45224;50.904;6.038;2023-03-19T08:04:07;99535.53;;;11.96;100.00
59419;BME280;45224;50.904;6.038;2023-03-19T08:05:38;99526.94;;;11.91;100.00
59419;BME280;45224;50.904;6.038;2023-03-19T08:07:09;99537.31;;;11.94;99.77
59419;BME280;45224;50.904;6.038;2023-03-19T08:08:41;99537.31;;;11.94;100.00
59419;BME280;45224;50.904;6.038;2023-03-19T08:10:12;99545.91;;;11.98;100.00
59419;BME280;45224;50.904;6.038;2023-03-19T08:11:42;99542.38;;;12.05;99.87
59419;BME280;45224;50.904;6.038;2023-03-19T08:13:13;99548.44;;;12.04;99.71
59419;BME280;45224;50.904;6.038;2023-03-19T08:14:43;99547.59;;;12.02;99.35